Agua Caliente Hot Springs, CA

10:15 AM PDT on September 02, 2014 (GMT -0700)
Pinezanita RV Park & Campgrounds | Change Station
CLOSE
Current Station
Personal Weather Station
Location: Julian, CA
Elevation: 4698 ft
Nearby Weather Stations

Elev 4698 ft 33.04 °N, 116.56 °W | Updated 1 second ago

Clear
Clear
84.7 °F
Feels Like 82 °F
N
6.0
Wind Variable Wind from West
Gusts 6.0 mph

Today
High -- | Low -- °F
--% Chance of Precip.
Yesterday
High -- | Low -- °F
Precip. -- in
6:21 AM 7:09 PM
First Quarter, 53% visible
Pressure 29.79 in
Visibility -9999.0 miles
Clouds
Heat Index 82 °F
Dew Point 38 °F
Humidity 19%
Rainfall 0.00 in
Snow Depth Not available.
UV Not available.
Pollen 7.80 out of 12
Air Quality Not available.
Flu Activity Not available.
METAR KCZZ 021652Z AUTO VRB03KT 29/01 A2989 RMK AO1 SLP088 T02940011

More Conditions Fewer Conditions

Pressure 29.79 in
Visibility -9999.0 miles
Clouds
Heat Index 82 °F
Dew Point 38 °F
Humidity 19%
Rainfall 0.00 in
Snow Depth Not available.
UV Not available.
Pollen 7.80 out of 12
Air Quality Not available.
Flu Activity Not available.
METAR KCZZ 021652Z AUTO VRB03KT 29/01 A2989 RMK AO1 SLP088 T02940011

More Conditions Fewer Conditions

10-Day Weather Forecast

Almanac

Astronomy

Sep. 02, 2014 Rise Set
Actual Time 6:21 AM PDT 7:09 PM PDT
Civil Twilight 5:56 AM PDT 7:34 PM PDT
Nautical Twilight 5:26 AM PDT 8:04 PM PDT
Astronomical Twilight 4:55 AM PDT 8:34 PM PDT
Moon 1:47 PM PDT No Moon Set
Length of Visible Light 13h 38m
Length of Day
12h 48m
Tomorrow will be 1m 57s shorter.
First Quarter, 53% of the Moon is Illuminated
Today
First Quarter
Sep 8
Full
Sep 15
Last Quarter
Sep 24
New
Oct 1
First Quarter

Today's Extremes

State Highs State Lows

Community

WunderPhotos

Upload Photos

1,749,719 photos uploaded!

Nearby

Snow Depth

Station Depth Elevation
Summit Meadow 1 in 9122 ft
Blue Lakes 0 in 8000 ft
Forestdale Creek 0 in 8029 ft
Hagan's Meadow 0 in 8000 ft
CSS Lab 2 in 6900 ft

Earthquake Activity

City Distance Mag. Time & Date
Holtville, California 68 miles 2.5 5:43 PM PDT
2014-09-01
Holtville, California 69 miles 2.5 5:26 PM PDT
2014-09-01
Minimum magnitude displayed is 2.5.

Coastal Water Temperatures

Place Temperature
No Stations Reporting

Nearby Weather Stations